• Join FlightAware (Why Join?)
  • Login
  • US Flag 
05:47PM EDT


 

Airport Tracker/Info


-or-


 

Live Flight TrackerFlight Track Log ✈ USC3011 ✈ 02-Jul-2013 ✈ KFXE - KORL

Flight Track Log - Related Links

Times and Time Zones

All times are in EDT time to prevent confusion due to time zone crossing. See the USC3011 flight status page for this flight to view local times or setup timezone preferences in your user account.

Time Position Orientation Groundspeed Altitude Reporting Facility
EDT Latitude Longitude Course Direction KTS MPH feet Rate Location/Type
02:57PM 26.2117 -80.1822 311° West 143 165 2,500  Level Miami Center
02:58PM 26.2447 -80.1992 335° Northwest 121 139 4,000 180 Climbing Miami Center
03:00PM 26.3028 -80.1670 26° Northeast  Level FlightAware Approximate
03:07PM 26.6483 -80.0876 12° North  Level FlightAware Approximate
03:08PM 26.6929 -80.1021 328° Northwest  Level FlightAware Approximate
03:09PM 26.7350 -80.1320 328° Northwest  Level FlightAware Approximate
03:10PM 26.7770 -80.1620 327° Northwest  Level FlightAware Approximate
03:11PM 26.8179 -80.1943 325° Northwest  Level FlightAware Approximate
03:12PM 26.8587 -80.2268 325° Northwest  Level FlightAware Approximate
03:12PM 26.8928 -80.4411 324° Northwest 194 223 6,000  Level Miami Center
03:13PM 26.8994 -80.2593 325° Northwest  Level FlightAware Approximate
03:13PM 26.9469 -80.4497 352° North 202 232 5,400  Level Miami Center
03:14PM 26.9401 -80.2919 325° Northwest  Level FlightAware Approximate
03:14PM 27.0094 -80.4494 360° North 223 257 5,000  Level Miami Center
03:15PM 26.9808 -80.3244 325° Northwest  Level FlightAware Approximate
03:15PM 27.0656 -80.4558 354° North 204 235 5,000  Level Miami Center
03:16PM 27.0215 -80.3570 324° Northwest  Level FlightAware Approximate
03:16PM 27.1178 -80.4644 352° North 193 222 5,000  Level Miami Center
03:17PM 27.1656 -80.4731 351° North 193 222 5,000  Level Miami Center
03:18PM 27.2175 -80.4792 354° North 193 222 5,100  Climbing Miami Center
03:19PM 27.2733 -80.5019 340° North 193 222 5,000 -60 Descending Miami Center
03:20PM 27.3250 -80.5247 339° North 193 222 5,000  Level Miami Center
03:21PM 27.3706 -80.5425 341° North 188 216 5,000  Level Miami Center
03:22PM 27.4219 -80.5675 337° Northwest 188 216 5,000  Level Miami Center
03:23PM 27.4733 -80.5972 333° Northwest 193 222 5,000  Level Miami Center
03:24PM 27.5164 -80.6339 323° Northwest 193 222 5,000  Level Miami Center
03:25PM 27.5528 -80.6772 313° West 188 216 5,000  Level Miami Center
03:26PM 27.5850 -80.7181 312° West 194 223 5,000  Level Miami Center
03:27PM 27.6256 -80.7639 315° West 194 223 5,000  Level Miami Center
03:28PM 27.6642 -80.8075 315° West 199 229 5,000  Level Miami Center
03:29PM 27.7047 -80.8511 316° Northwest 199 229 5,000  Level Miami Center
03:31PM 27.8000 -80.9500 317° Northwest 196 226 5,000  Level Orlando TRACON
03:32PM 27.8333 -81.0000 307° West 193 222 5,000  Level Orlando TRACON
03:33PM 27.8667 -81.0333 319° Northwest 194 223 5,000  Level Orlando TRACON
03:34PM 27.9167 -81.0833 319° Northwest 197 227 5,000  Level Orlando TRACON
03:35PM 27.9500 -81.1167 319° Northwest 197 227 5,000  Level Orlando TRACON
03:36PM 27.9833 -81.1667 307° West 202 232 5,000  Level Orlando TRACON
03:37PM 28.0333 -81.1667 360° North 194 223 5,100 -420 Climbing Orlando TRACON
03:38PM 28.0667 -81.2167 307° West 207 238 4,300 -1,020 Descending Orlando TRACON
03:39PM 28.0833 -81.2833 286° West 221 254 3,100 -660 Descending Orlando TRACON
03:40PM 28.1000 -81.3500 286° West 188 216 3,000 -60 Descending Orlando TRACON
03:41PM 28.1333 -81.3833 319° Northwest 195 224 3,000  Level Orlando TRACON
03:42PM 28.1833 -81.4167 330° Northwest 192 221 3,000  Level Orlando TRACON
03:43PM 28.2167 -81.4500 319° Northwest 192 221 3,000 -120 Level Orlando TRACON
03:44PM 28.2833 -81.4833 336° Northwest 194 223 2,800 -300 Descending Orlando TRACON
03:45PM 28.3333 -81.4833 360° North 198 228 2,400 -420 Descending Orlando TRACON